sensor_id;sensor_type;location;lat;lon;timestamp;P1;durP1;ratioP1;P2;durP2;ratioP2
10440;SDS011;5268;49.346;9.522;2022-11-15T04:22:31;4.82;;;3.92;;
10440;SDS011;5268;49.346;9.522;2022-11-15T04:27:51;5.85;;;3.80;;
10440;SDS011;5268;49.346;9.522;2022-11-15T04:32:53;6.43;;;4.10;;
10440;SDS011;5268;49.346;9.522;2022-11-15T04:37:57;6.22;;;4.13;;
10440;SDS011;5268;49.346;9.522;2022-11-15T04:42:59;5.95;;;4.07;;
10440;SDS011;5268;49.346;9.522;2022-11-15T04:48:01;5.50;;;4.35;;
10440;SDS011;5268;49.346;9.522;2022-11-15T04:53:05;4.75;;;4.00;;
10440;SDS011;5268;49.346;9.522;2022-11-15T04:58:08;5.63;;;4.10;;
10440;SDS011;5268;49.346;9.522;2022-11-15T05:03:11;6.40;;;4.60;;
10440;SDS011;5268;49.346;9.522;2022-11-15T05:08:32;7.72;;;5.78;;
10440;SDS011;5268;49.346;9.522;2022-11-15T05:13:34;6.05;;;5.40;;
10440;SDS011;5268;49.346;9.522;2022-11-15T05:18:36;10.40;;;6.28;;
10440;SDS011;5268;49.346;9.522;2022-11-15T05:23:42;8.00;;;5.40;;
10440;SDS011;5268;49.346;9.522;2022-11-15T05:28:44;8.85;;;5.57;;
10440;SDS011;5268;49.346;9.522;2022-11-15T05:33:46;10.15;;;7.30;;
10440;SDS011;5268;49.346;9.522;2022-11-15T05:38:57;8.35;;;6.35;;
10440;SDS011;5268;49.346;9.522;2022-11-15T05:44:02;9.93;;;6.32;;
10440;SDS011;5268;49.346;9.522;2022-11-15T05:49:12;8.73;;;7.28;;
10440;SDS011;5268;49.346;9.522;2022-11-15T05:54:25;7.35;;;6.53;;
10440;SDS011;5268;49.346;9.522;2022-11-15T05:59:45;7.47;;;6.57;;
10440;SDS011;5268;49.346;9.522;2022-11-15T06:05:08;8.98;;;6.55;;
10440;SDS011;5268;49.346;9.522;2022-11-15T06:10:12;8.27;;;6.38;;
10440;SDS011;5268;49.346;9.522;2022-11-15T06:15:14;7.57;;;6.00;;
10440;SDS011;5268;49.346;9.522;2022-11-15T06:20:16;7.60;;;6.10;;
10440;SDS011;5268;49.346;9.522;2022-11-15T06:25:20;9.13;;;5.53;;
10440;SDS011;5268;49.346;9.522;2022-11-15T06:30:22;7.03;;;5.88;;
10440;SDS011;5268;49.346;9.522;2022-11-15T06:35:25;12.32;;;10.38;;
10440;SDS011;5268;49.346;9.522;2022-11-15T06:40:28;9.68;;;8.20;;
10440;SDS011;5268;49.346;9.522;2022-11-15T06:45:30;12.70;;;8.65;;
10440;SDS011;5268;49.346;9.522;2022-11-15T06:50:33;12.55;;;7.90;;
10440;SDS011;5268;49.346;9.522;2022-11-15T06:55:36;8.85;;;6.13;;
10440;SDS011;5268;49.346;9.522;2022-11-15T07:00:38;10.85;;;6.47;;
10440;SDS011;5268;49.346;9.522;2022-11-15T07:05:40;10.63;;;7.60;;
10440;SDS011;5268;49.346;9.522;2022-11-15T07:10:44;12.52;;;9.35;;
10440;SDS011;5268;49.346;9.522;2022-11-15T07:15:49;16.15;;;13.52;;
10440;SDS011;5268;49.346;9.522;2022-11-15T07:20:51;15.88;;;12.52;;
10440;SDS011;5268;49.346;9.522;2022-11-15T07:25:55;19.48;;;11.80;;
10440;SDS011;5268;49.346;9.522;2022-11-15T07:31:01;19.33;;;11.15;;
10440;SDS011;5268;49.346;9.522;2022-11-15T07:36:04;16.92;;;14.00;;
10440;SDS011;5268;49.346;9.522;2022-11-15T07:41:08;15.25;;;11.60;;
10440;SDS011;5268;49.346;9.522;2022-11-15T07:46:11;15.07;;;9.93;;
10440;SDS011;5268;49.346;9.522;2022-11-15T07:51:15;11.43;;;8.20;;
10440;SDS011;5268;49.346;9.522;2022-11-15T07:56:20;14.38;;;9.00;;
10440;SDS011;5268;49.346;9.522;2022-11-15T08:01:22;13.88;;;10.50;;
10440;SDS011;5268;49.346;9.522;2022-11-15T08:06:25;9.73;;;7.80;;
10440;SDS011;5268;49.346;9.522;2022-11-15T08:11:31;13.20;;;9.13;;
10440;SDS011;5268;49.346;9.522;2022-11-15T08:16:33;14.45;;;11.02;;
10440;SDS011;5268;49.346;9.522;2022-11-15T08:21:54;10.90;;;8.27;;
10440;SDS011;5268;49.346;9.522;2022-11-15T08:27:01;7.03;;;5.07;;
10440;SDS011;5268;49.346;9.522;2022-11-15T08:32:03;7.80;;;6.45;;
10440;SDS011;5268;49.346;9.522;2022-11-15T08:37:05;9.10;;;6.93;;
10440;SDS011;5268;49.346;9.522;2022-11-15T08:42:09;9.18;;;6.80;;
10440;SDS011;5268;49.346;9.522;2022-11-15T08:47:13;10.95;;;8.85;;
10440;SDS011;5268;49.346;9.522;2022-11-15T08:52:15;19.10;;;13.20;;
10440;SDS011;5268;49.346;9.522;2022-11-15T08:57:19;12.93;;;9.18;;
10440;SDS011;5268;49.346;9.522;2022-11-15T09:02:21;10.63;;;8.40;;
10440;SDS011;5268;49.346;9.522;2022-11-15T09:07:23;11.43;;;9.13;;
10440;SDS011;5268;49.346;9.522;2022-11-15T09:12:27;9.27;;;6.00;;
10440;SDS011;5268;49.346;9.522;2022-11-15T09:17:29;7.30;;;6.05;;
10440;SDS011;5268;49.346;9.522;2022-11-15T09:22:31;8.90;;;7.20;;
10440;SDS011;5268;49.346;9.522;2022-11-15T09:27:35;9.60;;;6.22;;
10440;SDS011;5268;49.346;9.522;2022-11-15T09:32:37;7.85;;;5.82;;
10440;SDS011;5268;49.346;9.522;2022-11-15T09:37:39;7.93;;;6.30;;
10440;SDS011;5268;49.346;9.522;2022-11-15T09:42:48;9.93;;;6.40;;
10440;SDS011;5268;49.346;9.522;2022-11-15T09:48:07;6.90;;;5.07;;
10440;SDS011;5268;49.346;9.522;2022-11-15T09:53:29;5.30;;;4.80;;
10440;SDS011;5268;49.346;9.522;2022-11-15T09:58:38;7.90;;;6.10;;
10440;SDS011;5268;49.346;9.522;2022-11-15T10:03:45;8.60;;;6.22;;
10440;SDS011;5268;49.346;9.522;2022-11-15T10:08:50;7.85;;;6.25;;
10440;SDS011;5268;49.346;9.522;2022-11-15T10:13:59;12.85;;;9.40;;
10440;SDS011;5268;49.346;9.522;2022-11-15T10:19:06;8.55;;;5.45;;
10440;SDS011;5268;49.346;9.522;2022-11-15T10:24:17;7.15;;;5.18;;
10440;SDS011;5268;49.346;9.522;2022-11-15T10:29:26;6.78;;;4.93;;
10440;SDS011;5268;49.346;9.522;2022-11-15T10:34:28;8.07;;;4.80;;
10440;SDS011;5268;49.346;9.522;2022-11-15T10:39:36;5.05;;;4.10;;
10440;SDS011;5268;49.346;9.522;2022-11-15T10:44:42;4.07;;;3.53;;
10440;SDS011;5268;49.346;9.522;2022-11-15T10:49:52;4.15;;;2.70;;
10440;SDS011;5268;49.346;9.522;2022-11-15T10:54:57;3.42;;;2.83;;
10440;SDS011;5268;49.346;9.522;2022-11-15T11:00:06;4.22;;;2.70;;
10440;SDS011;5268;49.346;9.522;2022-11-15T11:05:28;4.00;;;2.22;;
10440;SDS011;5268;49.346;9.522;2022-11-15T11:10:33;3.83;;;2.15;;
10440;SDS011;5268;49.346;9.522;2022-11-15T11:15:37;4.07;;;2.28;;
10440;SDS011;5268;49.346;9.522;2022-11-15T11:20:40;2.47;;;1.88;;
10440;SDS011;5268;49.346;9.522;2022-11-15T11:25:48;3.53;;;1.70;;
10440;SDS011;5268;49.346;9.522;2022-11-15T11:30:58;2.70;;;1.88;;
10440;SDS011;5268;49.346;9.522;2022-11-15T11:36:13;2.90;;;2.05;;
10440;SDS011;5268;49.346;9.522;2022-11-15T11:46:51;2.95;;;1.92;;
10440;SDS011;5268;49.346;9.522;2022-11-15T11:51:59;2.75;;;1.98;;
10440;SDS011;5268;49.346;9.522;2022-11-15T11:57:10;3.00;;;1.75;;
10440;SDS011;5268;49.346;9.522;2022-11-15T12:02:20;3.35;;;2.05;;
10440;SDS011;5268;49.346;9.522;2022-11-15T12:07:31;3.20;;;2.03;;
10440;SDS011;5268;49.346;9.522;2022-11-15T12:12:36;3.30;;;1.55;;
10440;SDS011;5268;49.346;9.522;2022-11-15T12:17:44;2.92;;;2.13;;
10440;SDS011;5268;49.346;9.522;2022-11-15T12:22:53;5.03;;;3.00;;
10440;SDS011;5268;49.346;9.522;2022-11-15T12:27:59;2.22;;;1.92;;
10440;SDS011;5268;49.346;9.522;2022-11-15T12:33:32;3.63;;;2.35;;
10440;SDS011;5268;49.346;9.522;2022-11-15T12:44:10;2.05;;;1.65;;
10440;SDS011;5268;49.346;9.522;2022-11-15T12:54:50;3.10;;;2.20;;
10440;SDS011;5268;49.346;9.522;2022-11-15T12:59:58;3.35;;;1.80;;
10440;SDS011;5268;49.346;9.522;2022-11-15T13:10:57;3.15;;;2.00;;
10440;SDS011;5268;49.346;9.522;2022-11-15T13:15:59;3.95;;;1.90;;
10440;SDS011;5268;49.346;9.522;2022-11-15T13:21:05;4.65;;;1.90;;
10440;SDS011;5268;49.346;9.522;2022-11-15T13:26:38;2.20;;;1.95;;
10440;SDS011;5268;49.346;9.522;2022-11-15T13:31:42;2.78;;;1.90;;
10440;SDS011;5268;49.346;9.522;2022-11-15T13:36:46;4.55;;;2.10;;
10440;SDS011;5268;49.346;9.522;2022-11-15T13:41:49;4.00;;;1.95;;
10440;SDS011;5268;49.346;9.522;2022-11-15T13:47:02;3.83;;;2.30;;
10440;SDS011;5268;49.346;9.522;2022-11-15T13:52:07;3.08;;;2.28;;
10440;SDS011;5268;49.346;9.522;2022-11-15T13:57:14;4.53;;;2.20;;
10440;SDS011;5268;49.346;9.522;2022-11-15T14:02:21;3.75;;;2.67;;
10440;SDS011;5268;49.346;9.522;2022-11-15T14:07:29;5.72;;;2.10;;
10440;SDS011;5268;49.346;9.522;2022-11-15T14:12:32;3.78;;;2.30;;
10440;SDS011;5268;49.346;9.522;2022-11-15T14:17:36;3.80;;;2.90;;
10440;SDS011;5268;49.346;9.522;2022-11-15T14:22:42;4.85;;;2.85;;
10440;SDS011;5268;49.346;9.522;2022-11-15T14:28:13;5.28;;;2.53;;
10440;SDS011;5268;49.346;9.522;2022-11-15T14:33:18;3.88;;;2.72;;
10440;SDS011;5268;49.346;9.522;2022-11-15T14:38:24;3.63;;;2.50;;
10440;SDS011;5268;49.346;9.522;2022-11-15T14:43:27;4.10;;;2.47;;
10440;SDS011;5268;49.346;9.522;2022-11-15T14:48:29;4.95;;;2.70;;
10440;SDS011;5268;49.346;9.522;2022-11-15T14:53:33;3.47;;;2.30;;
10440;SDS011;5268;49.346;9.522;2022-11-15T14:58:35;4.07;;;2.53;;
10440;SDS011;5268;49.346;9.522;2022-11-15T15:03:37;6.22;;;3.10;;
10440;SDS011;5268;49.346;9.522;2022-11-15T15:08:40;4.55;;;3.60;;
10440;SDS011;5268;49.346;9.522;2022-11-15T15:13:42;5.80;;;3.15;;
10440;SDS011;5268;49.346;9.522;2022-11-15T15:18:44;4.68;;;3.35;;
10440;SDS011;5268;49.346;9.522;2022-11-15T15:23:48;8.18;;;5.82;;
10440;SDS011;5268;49.346;9.522;2022-11-15T15:28:50;6.38;;;4.80;;
10440;SDS011;5268;49.346;9.522;2022-11-15T15:33:52;5.93;;;3.30;;
10440;SDS011;5268;49.346;9.522;2022-11-15T15:38:55;5.97;;;3.25;;
10440;SDS011;5268;49.346;9.522;2022-11-15T15:43:58;5.07;;;3.53;;
10440;SDS011;5268;49.346;9.522;2022-11-15T15:49:00;5.85;;;3.92;;
10440;SDS011;5268;49.346;9.522;2022-11-15T15:54:03;6.35;;;3.78;;
10440;SDS011;5268;49.346;9.522;2022-11-15T15:59:05;3.60;;;2.95;;
10440;SDS011;5268;49.346;9.522;2022-11-15T16:04:07;9.27;;;3.08;;
10440;SDS011;5268;49.346;9.522;2022-11-15T16:09:12;4.85;;;2.92;;
10440;SDS011;5268;49.346;9.522;2022-11-15T16:14:15;5.00;;;2.90;;
10440;SDS011;5268;49.346;9.522;2022-11-15T16:19:17;4.15;;;3.40;;
10440;SDS011;5268;49.346;9.522;2022-11-15T16:24:21;5.60;;;3.50;;
10440;SDS011;5268;49.346;9.522;2022-11-15T16:29:24;6.78;;;4.47;;
10440;SDS011;5268;49.346;9.522;2022-11-15T16:34:27;11.57;;;8.23;;
10440;SDS011;5268;49.346;9.522;2022-11-15T16:39:30;7.53;;;4.65;;
10440;SDS011;5268;49.346;9.522;2022-11-15T16:44:32;6.47;;;4.55;;
10440;SDS011;5268;49.346;9.522;2022-11-15T16:49:37;5.43;;;3.70;;
10440;SDS011;5268;49.346;9.522;2022-11-15T16:54:48;4.45;;;3.28;;
10440;SDS011;5268;49.346;9.522;2022-11-15T16:59:50;5.50;;;3.78;;
10440;SDS011;5268;49.346;9.522;2022-11-15T17:04:53;5.00;;;3.05;;
10440;SDS011;5268;49.346;9.522;2022-11-15T17:09:56;4.38;;;2.80;;
10440;SDS011;5268;49.346;9.522;2022-11-15T17:14:59;4.90;;;3.25;;
10440;SDS011;5268;49.346;9.522;2022-11-15T17:20:01;6.25;;;3.40;;
10440;SDS011;5268;49.346;9.522;2022-11-15T17:25:10;7.93;;;3.60;;
10440;SDS011;5268;49.346;9.522;2022-11-15T17:30:12;7.75;;;5.50;;
10440;SDS011;5268;49.346;9.522;2022-11-15T17:35:15;4.90;;;3.65;;
10440;SDS011;5268;49.346;9.522;2022-11-15T17:40:19;7.25;;;4.30;;
10440;SDS011;5268;49.346;9.522;2022-11-15T17:45:21;5.03;;;3.63;;
10440;SDS011;5268;49.346;9.522;2022-11-15T17:50:23;3.65;;;3.10;;
10440;SDS011;5268;49.346;9.522;2022-11-15T17:55:27;4.93;;;3.38;;
10440;SDS011;5268;49.346;9.522;2022-11-15T18:00:29;5.75;;;3.53;;
10440;SDS011;5268;49.346;9.522;2022-11-15T18:05:31;5.47;;;3.35;;
10440;SDS011;5268;49.346;9.522;2022-11-15T18:16:44;5.05;;;3.70;;
10440;SDS011;5268;49.346;9.522;2022-11-15T18:21:46;4.25;;;3.45;;
10440;SDS011;5268;49.346;9.522;2022-11-15T18:26:58;4.65;;;3.30;;
10440;SDS011;5268;49.346;9.522;2022-11-15T18:32:03;3.78;;;3.38;;
10440;SDS011;5268;49.346;9.522;2022-11-15T18:37:10;5.13;;;3.53;;
10440;SDS011;5268;49.346;9.522;2022-11-15T18:42:12;4.53;;;3.80;;
10440;SDS011;5268;49.346;9.522;2022-11-15T18:47:16;6.07;;;3.63;;
10440;SDS011;5268;49.346;9.522;2022-11-15T18:52:18;4.03;;;3.63;;
10440;SDS011;5268;49.346;9.522;2022-11-15T18:57:21;5.10;;;3.50;;
10440;SDS011;5268;49.346;9.522;2022-11-15T19:02:25;3.88;;;3.47;;
10440;SDS011;5268;49.346;9.522;2022-11-15T19:07:27;4.20;;;3.80;;
10440;SDS011;5268;49.346;9.522;2022-11-15T19:12:29;4.32;;;3.92;;
10440;SDS011;5268;49.346;9.522;2022-11-15T19:17:33;6.32;;;3.78;;
10440;SDS011;5268;49.346;9.522;2022-11-15T19:22:35;4.93;;;3.67;;
10440;SDS011;5268;49.346;9.522;2022-11-15T19:27:37;4.90;;;3.85;;
10440;SDS011;5268;49.346;9.522;2022-11-15T19:32:41;6.38;;;3.83;;
10440;SDS011;5268;49.346;9.522;2022-11-15T19:37:43;4.70;;;4.22;;
10440;SDS011;5268;49.346;9.522;2022-11-15T19:42:45;4.70;;;3.60;;
10440;SDS011;5268;49.346;9.522;2022-11-15T19:47:54;5.05;;;3.97;;
10440;SDS011;5268;49.346;9.522;2022-11-15T19:52:57;4.78;;;4.03;;
10440;SDS011;5268;49.346;9.522;2022-11-15T19:57:59;6.07;;;4.00;;
10440;SDS011;5268;49.346;9.522;2022-11-15T20:03:02;5.63;;;3.53;;
10440;SDS011;5268;49.346;9.522;2022-11-15T20:08:05;4.20;;;3.80;;
10440;SDS011;5268;49.346;9.522;2022-11-15T20:13:07;5.35;;;3.83;;
10440;SDS011;5268;49.346;9.522;2022-11-15T20:18:11;4.60;;;4.10;;
10440;SDS011;5268;49.346;9.522;2022-11-15T20:23:13;5.65;;;4.10;;
10440;SDS011;5268;49.346;9.522;2022-11-15T20:28:16;4.13;;;3.67;;
10440;SDS011;5268;49.346;9.522;2022-11-15T20:33:21;4.85;;;3.80;;
10440;SDS011;5268;49.346;9.522;2022-11-15T20:38:24;5.35;;;4.35;;
10440;SDS011;5268;49.346;9.522;2022-11-15T20:43:26;6.15;;;4.45;;
10440;SDS011;5268;49.346;9.522;2022-11-15T20:48:30;6.35;;;4.53;;
10440;SDS011;5268;49.346;9.522;2022-11-15T20:53:34;8.73;;;4.70;;
10440;SDS011;5268;49.346;9.522;2022-11-15T20:58:36;6.57;;;4.65;;
10440;SDS011;5268;49.346;9.522;2022-11-15T21:03:40;22.65;;;15.65;;
10440;SDS011;5268;49.346;9.522;2022-11-15T21:08:42;12.50;;;7.65;;
10440;SDS011;5268;49.346;9.522;2022-11-15T21:14:02;7.95;;;6.78;;
10440;SDS011;5268;49.346;9.522;2022-11-15T21:19:06;6.63;;;5.75;;
10440;SDS011;5268;49.346;9.522;2022-11-15T21:24:08;6.25;;;4.60;;
10440;SDS011;5268;49.346;9.522;2022-11-15T21:29:11;6.07;;;4.30;;
10440;SDS011;5268;49.346;9.522;2022-11-15T21:34:17;5.85;;;4.30;;
10440;SDS011;5268;49.346;9.522;2022-11-15T21:39:20;5.55;;;4.57;;
10440;SDS011;5268;49.346;9.522;2022-11-15T21:44:22;8.32;;;5.70;;
10440;SDS011;5268;49.346;9.522;2022-11-15T21:49:25;8.13;;;5.70;;
10440;SDS011;5268;49.346;9.522;2022-11-15T21:54:27;7.97;;;5.68;;
10440;SDS011;5268;49.346;9.522;2022-11-15T21:59:29;8.20;;;5.53;;
10440;SDS011;5268;49.346;9.522;2022-11-15T22:04:33;5.50;;;4.80;;
10440;SDS011;5268;49.346;9.522;2022-11-15T22:09:35;7.00;;;5.50;;
10440;SDS011;5268;49.346;9.522;2022-11-15T22:14:37;7.50;;;5.30;;
10440;SDS011;5268;49.346;9.522;2022-11-15T22:19:40;6.25;;;4.95;;
10440;SDS011;5268;49.346;9.522;2022-11-15T22:24:42;8.32;;;6.13;;
10440;SDS011;5268;49.346;9.522;2022-11-15T22:29:44;7.13;;;5.78;;
